KCOS/COS METAR and TAF weather

Enter ICAO airport designator
Station Type Date Time Source
KCOS METAR 2020/09/20 05:54 UTC NOAA

KCOS 200554Z 09008KT 10SM BKN140 19/01 A3013 RMK AO2 SLP104 T01890011 10278 20156 51008


Station Type Date Time Source
KCOS Decoded METAR 2020/09/20 05:54 UTC NOAA

COLORADO SPRINGS MUNI, CO, United States (KCOS) 38-49N 104-43W 1856M
Sep 20, 2020 - 01:54 AM EDT / 2020.09.20 0554 UTC
Wind: from the E (090 degrees) at 9 MPH (8 KT):0
Visibility: 10 mile(s):0
Sky conditions: mostly cloudy
Temperature: 66.0 F (18.9 C)
Dew Point: 34.0 F (1.1 C)
Relative Humidity: 30%
Pressure (altimeter): 30.13 in. Hg (1020 hPa)
Pressure tendency: 0.02 inches (0.8 hPa) higher than three hours ago
ob: KCOS 200554Z 09008KT 10SM BKN140 19/01 A3013 RMK AO2 SLP104 T01890011 10278 20156 51008
cycle: 6

Station Type Date Time Source
KCOS TAF 2020/09/20 06:36 UTC NOAA

TAF KCOS 200535Z 2006/2106 03006KT P6SM FEW100
FM201500 16006KT P6SM FEW250
FM201900 18012G22KT P6SM SCT100 BKN150
FM210200 03006KT P6SM SCT100 BKN150

Example: see airport list